createdAt,value
2018-06-01T00:00:26.720Z,18.49
2018-06-01T00:01:26.679Z,18.35
2018-06-01T00:02:26.632Z,18.46
2018-06-01T00:03:26.616Z,18.49
2018-06-01T00:04:26.543Z,18.43
2018-06-01T00:05:26.495Z,18.48
2018-06-01T00:06:26.453Z,18.44
2018-06-01T00:07:26.406Z,18.56
2018-06-01T00:08:26.383Z,18.50
2018-06-01T00:09:26.312Z,18.60
2018-06-01T00:10:26.269Z,18.63
2018-06-01T00:11:26.225Z,18.59
2018-06-01T00:12:26.188Z,18.63
2018-06-01T00:13:26.182Z,18.68
2018-06-01T00:14:26.089Z,18.70
2018-06-01T00:15:26.044Z,18.73
2018-06-01T00:16:25.994Z,18.66
2018-06-01T00:17:25.956Z,18.66
2018-06-01T00:18:25.911Z,18.73
2018-06-01T00:19:25.883Z,18.66
2018-06-01T00:20:25.816Z,18.77
2018-06-01T00:21:25.771Z,18.77
2018-06-01T00:22:25.727Z,18.83
2018-06-01T00:23:32.869Z,18.77
2018-06-01T00:24:25.643Z,18.88
2018-06-01T00:25:25.590Z,18.83
2018-06-01T00:26:25.542Z,18.88
2018-06-01T00:27:25.501Z,18.86
2018-06-01T00:28:25.454Z,18.88
2018-06-01T00:29:25.428Z,18.78
2018-06-01T00:30:25.366Z,18.75
2018-06-01T00:31:25.315Z,18.77
2018-06-01T00:32:25.274Z,18.78
2018-06-01T00:33:25.228Z,18.78
2018-06-01T00:34:25.205Z,18.80
2018-06-01T00:35:25.141Z,18.68
2018-06-01T00:36:25.093Z,18.81
2018-06-01T00:37:25.044Z,18.77
2018-06-01T00:38:24.999Z,18.77
2018-06-01T00:39:24.981Z,18.81
2018-06-01T00:40:24.910Z,18.77
2018-06-01T00:41:24.865Z,18.80
2018-06-01T00:42:24.819Z,18.75
2018-06-01T00:43:24.771Z,18.83
2018-06-01T00:44:24.750Z,18.78
2018-06-01T00:45:24.689Z,18.83
2018-06-01T00:46:24.637Z,18.81
2018-06-01T00:47:24.592Z,18.81
2018-06-01T00:48:24.548Z,18.83
2018-06-01T00:49:24.526Z,18.86
2018-06-01T00:50:24.457Z,18.78
2018-06-01T00:51:24.412Z,18.74
2018-06-01T00:52:24.370Z,18.78
2018-06-01T00:53:24.331Z,18.68
2018-06-01T00:54:24.302Z,18.80
2018-06-01T00:55:24.229Z,18.74
2018-06-01T00:56:24.183Z,18.74
2018-06-01T00:57:24.138Z,18.67
2018-06-01T00:58:24.093Z,18.73
2018-06-01T00:59:24.073Z,18.66
2018-06-01T01:00:24.001Z,18.71
2018-06-01T01:01:23.957Z,18.68
2018-06-01T01:02:23.913Z,18.70
2018-06-01T01:03:23.871Z,18.66
2018-06-01T01:04:23.843Z,18.70
2018-06-01T01:05:23.780Z,18.63
2018-06-01T01:06:23.731Z,18.62
2018-06-01T01:07:23.690Z,18.67
2018-06-01T01:08:23.640Z,18.63
2018-06-01T01:09:23.623Z,18.53
2018-06-01T01:10:23.562Z,18.43
2018-06-01T01:11:23.512Z,18.43
2018-06-01T01:12:23.459Z,18.37
2018-06-01T01:13:23.415Z,18.30
2018-06-01T01:14:23.397Z,18.37
2018-06-01T01:15:23.326Z,18.34
2018-06-01T01:16:23.276Z,18.31
2018-06-01T01:17:23.233Z,18.31
2018-06-01T01:18:23.187Z,18.37
2018-06-01T01:19:23.163Z,18.30
2018-06-01T01:20:23.099Z,18.38
2018-06-01T01:21:23.050Z,18.34
2018-06-01T01:22:23.010Z,18.40
2018-06-01T01:23:22.961Z,18.31
2018-06-01T01:24:22.943Z,18.37
2018-06-01T01:25:22.871Z,18.31
2018-06-01T01:26:22.823Z,18.35
2018-06-01T01:27:22.780Z,18.38
2018-06-01T01:28:22.731Z,18.44
2018-06-01T01:29:22.712Z,18.37
2018-06-01T01:30:22.643Z,18.46
2018-06-01T01:31:22.595Z,18.52
2018-06-01T01:32:22.554Z,18.49
2018-06-01T01:33:22.507Z,18.49
2018-06-01T01:34:22.483Z,18.40
2018-06-01T01:35:22.417Z,18.34
2018-06-01T01:36:22.368Z,18.33
2018-06-01T01:37:22.324Z,18.35
2018-06-01T01:38:22.279Z,18.28
2018-06-01T01:39:22.268Z,18.25
2018-06-01T01:40:22.204Z,18.30
2018-06-01T01:41:23.091Z,18.22
2018-06-01T01:42:22.097Z,18.26
2018-06-01T01:43:22.051Z,18.28
2018-06-01T01:44:22.030Z,18.26
2018-06-01T01:45:21.963Z,18.25
2018-06-01T01:46:21.914Z,18.28
2018-06-01T01:47:21.870Z,18.30
2018-06-01T01:48:21.826Z,18.33
2018-06-01T01:49:21.801Z,18.34
2018-06-01T01:50:21.734Z,18.30
2018-06-01T01:51:21.687Z,18.26
2018-06-01T01:52:21.641Z,18.20
2018-06-01T01:53:21.599Z,18.09
2018-06-01T01:54:21.579Z,18.15
2018-06-01T01:55:21.515Z,18.13
2018-06-01T01:56:21.460Z,18.18
2018-06-01T01:57:21.414Z,18.16
2018-06-01T01:58:21.372Z,18.23
2018-06-01T01:59:21.347Z,18.26
2018-06-01T02:00:21.279Z,18.25
2018-06-01T02:01:21.234Z,18.23
2018-06-01T02:02:21.188Z,18.26
2018-06-01T02:03:21.142Z,18.31
2018-06-01T02:04:21.121Z,18.33
2018-06-01T02:05:21.058Z,18.31
2018-06-01T02:06:21.005Z,18.23
2018-06-01T02:07:20.961Z,18.25
2018-06-01T02:08:20.914Z,18.26
2018-06-01T02:09:20.893Z,18.25
2018-06-01T02:10:20.825Z,18.20
2018-06-01T02:11:20.783Z,18.30
2018-06-01T02:12:20.735Z,18.30
2018-06-01T02:13:20.693Z,18.31
2018-06-01T02:14:20.668Z,18.26
2018-06-01T02:15:20.595Z,18.26
2018-06-01T02:16:20.553Z,18.23
2018-06-01T02:17:20.506Z,18.26
2018-06-01T02:18:20.461Z,18.30
2018-06-01T02:19:20.439Z,18.33
2018-06-01T02:20:20.375Z,18.30
2018-06-01T02:21:20.324Z,18.41
2018-06-01T02:22:20.281Z,18.34
2018-06-01T02:23:20.235Z,18.40
2018-06-01T02:24:20.266Z,18.37
2018-06-01T02:25:20.143Z,18.43
2018-06-01T02:26:20.097Z,18.49
2018-06-01T02:27:20.055Z,18.46
2018-06-01T02:28:20.008Z,18.41
2018-06-01T02:29:19.988Z,18.44
2018-06-01T02:30:19.919Z,18.59
2018-06-01T02:31:19.871Z,18.55
2018-06-01T02:32:19.826Z,18.59
2018-06-01T02:33:19.779Z,18.55
2018-06-01T02:34:19.757Z,18.56
2018-06-01T02:35:19.689Z,18.63
2018-06-01T02:36:19.647Z,18.63
2018-06-01T02:37:19.601Z,18.60
2018-06-01T02:38:19.553Z,18.62
2018-06-01T02:39:19.531Z,18.58
2018-06-01T02:40:19.459Z,18.59
2018-06-01T02:41:19.418Z,18.62
2018-06-01T02:42:19.372Z,18.60
2018-06-01T02:43:19.336Z,18.63
2018-06-01T02:44:19.303Z,18.62
2018-06-01T02:45:19.241Z,18.52
2018-06-01T02:46:19.192Z,18.59
2018-06-01T02:47:19.145Z,18.56
2018-06-01T02:48:19.100Z,18.55
2018-06-01T02:49:19.072Z,18.58
2018-06-01T02:50:19.014Z,18.66
2018-06-01T02:51:18.966Z,18.63
2018-06-01T02:52:18.922Z,18.60
2018-06-01T02:53:18.873Z,18.67
2018-06-01T02:54:18.850Z,18.67
2018-06-01T02:55:18.785Z,18.67
2018-06-01T02:56:18.735Z,18.71
2018-06-01T02:57:18.693Z,18.75
2018-06-01T02:58:18.647Z,18.75
2018-06-01T02:59:18.629Z,18.77
2018-06-01T03:00:18.820Z,18.74
2018-06-01T03:01:18.510Z,18.77
2018-06-01T03:02:18.466Z,18.77
2018-06-01T03:03:18.417Z,18.77
2018-06-01T03:04:18.378Z,18.80
2018-06-01T03:05:18.353Z,18.80
2018-06-01T03:06:18.286Z,18.77
2018-06-01T03:07:18.242Z,18.81
2018-06-01T03:08:18.196Z,18.78
2018-06-01T03:09:18.148Z,18.81
2018-06-01T03:10:18.126Z,18.80
2018-06-01T03:11:18.065Z,18.78
2018-06-01T03:12:18.017Z,18.81
2018-06-01T03:13:17.969Z,18.86
2018-06-01T03:14:17.926Z,18.92
2018-06-01T03:15:17.901Z,18.78
2018-06-01T03:16:17.833Z,18.83
2018-06-01T03:17:17.788Z,18.80
2018-06-01T03:18:17.741Z,18.81
2018-06-01T03:19:17.696Z,18.83
2018-06-01T03:20:17.676Z,18.80
2018-06-01T03:21:17.606Z,18.81
2018-06-01T03:22:17.564Z,18.78
2018-06-01T03:23:17.516Z,18.80
2018-06-01T03:24:17.472Z,18.78
2018-06-01T03:25:17.448Z,18.75
2018-06-01T03:26:17.408Z,18.73
2018-06-01T03:27:17.335Z,18.73
2018-06-01T03:28:17.290Z,18.70
2018-06-01T03:29:17.256Z,18.73
2018-06-01T03:30:17.223Z,18.70
2018-06-01T03:31:17.154Z,18.75
2018-06-01T03:32:17.111Z,18.66
2018-06-01T03:33:17.067Z,18.80
2018-06-01T03:34:17.021Z,18.74
2018-06-01T03:35:17.000Z,18.75
2018-06-01T03:36:16.929Z,18.60
2018-06-01T03:37:16.882Z,18.67
2018-06-01T03:38:16.838Z,18.62
2018-06-01T03:39:16.795Z,18.63
2018-06-01T03:40:16.772Z,18.60
2018-06-01T03:41:16.705Z,18.67
2018-06-01T03:42:16.658Z,18.68
2018-06-01T03:43:16.611Z,18.67
2018-06-01T03:44:16.568Z,18.63
2018-06-01T03:45:16.542Z,18.62
2018-06-01T03:46:16.476Z,18.60
2018-06-01T03:47:16.434Z,18.67
2018-06-01T03:48:16.385Z,18.62
2018-06-01T03:49:16.343Z,18.58
2018-06-01T03:50:16.318Z,18.52
2018-06-01T03:51:16.254Z,18.48
2018-06-01T03:52:16.202Z,18.50
2018-06-01T03:53:16.157Z,18.48
2018-06-01T03:54:16.114Z,18.44
2018-06-01T03:55:16.089Z,18.49
2018-06-01T03:56:16.024Z,18.43
2018-06-01T03:57:15.979Z,18.49
2018-06-01T03:58:15.933Z,18.59
2018-06-01T03:59:15.888Z,18.56
2018-06-01T04:00:15.864Z,18.56
2018-06-01T04:01:15.802Z,18.55
2018-06-01T04:02:15.753Z,18.56
2018-06-01T04:03:15.715Z,18.56
2018-06-01T04:04:15.662Z,18.62
2018-06-01T04:05:15.637Z,18.60
2018-06-01T04:06:15.570Z,18.58
2018-06-01T04:07:15.525Z,18.68
2018-06-01T04:08:15.480Z,18.71
2018-06-01T04:09:15.435Z,18.70
2018-06-01T04:10:15.415Z,18.68
2018-06-01T04:11:15.345Z,18.58
2018-06-01T04:12:15.298Z,18.73
2018-06-01T04:13:15.254Z,18.70
2018-06-01T04:14:15.210Z,18.67
2018-06-01T04:15:15.189Z,18.73
2018-06-01T04:16:15.118Z,18.77
2018-06-01T04:17:15.075Z,18.74
2018-06-01T04:18:15.028Z,18.71
2018-06-01T04:19:14.985Z,18.75
2018-06-01T04:20:14.960Z,18.78
2018-06-01T04:22:46.483Z,18.81
2018-06-01T04:23:46.432Z,18.90
2018-06-01T04:24:46.407Z,18.80
2018-06-01T04:25:46.344Z,18.78
2018-06-01T04:26:46.308Z,18.81
2018-06-01T04:27:46.295Z,18.92
2018-06-01T04:28:46.199Z,18.89
2018-06-01T04:29:46.155Z,18.83
2018-06-01T04:30:46.142Z,18.89
2018-06-01T04:31:46.066Z,18.89
2018-06-01T04:32:46.022Z,18.90
2018-06-01T04:33:45.981Z,18.99
2018-06-01T04:34:45.930Z,19.04
2018-06-01T04:35:45.915Z,19.07
2018-06-01T04:36:45.842Z,19.07
2018-06-01T04:37:45.796Z,19.09
2018-06-01T04:38:45.752Z,19.07
2018-06-01T04:39:45.706Z,19.11
2018-06-01T04:40:45.681Z,19.16
2018-06-01T04:41:45.616Z,19.23
2018-06-01T04:42:45.582Z,19.16
2018-06-01T04:43:45.526Z,19.26
2018-06-01T04:44:45.481Z,19.34
2018-06-01T04:45:45.457Z,19.26
2018-06-01T04:46:45.392Z,19.31
2018-06-01T04:47:45.346Z,19.29
2018-06-01T04:48:45.300Z,19.37
2018-06-01T04:49:45.256Z,19.33
2018-06-01T04:50:45.237Z,19.39
2018-06-01T04:51:45.167Z,19.37
2018-06-01T04:52:45.123Z,19.55
2018-06-01T04:53:45.079Z,19.66
2018-06-01T04:54:45.034Z,19.82
2018-06-01T04:55:45.016Z,19.88
2018-06-01T04:56:44.943Z,19.86
2018-06-01T04:57:44.899Z,19.84
2018-06-01T04:58:44.858Z,19.84
2018-06-01T04:59:44.811Z,19.86
2018-06-01T05:00:44.788Z,19.85
2018-06-01T05:01:44.724Z,19.92
2018-06-01T05:02:44.680Z,19.84
2018-06-01T05:03:44.637Z,19.85
2018-06-01T05:04:44.588Z,19.86
2018-06-01T05:05:44.566Z,19.88
2018-06-01T05:06:44.496Z,19.82
2018-06-01T05:07:44.454Z,19.82
2018-06-01T05:08:44.410Z,19.89
2018-06-01T05:09:44.363Z,19.85
2018-06-01T05:10:44.347Z,19.88
2018-06-01T05:11:44.276Z,19.99
2018-06-01T05:12:44.230Z,19.94
2018-06-01T05:13:52.130Z,19.99
2018-06-01T05:14:44.143Z,19.84
2018-06-01T05:15:44.121Z,19.88
2018-06-01T05:16:44.078Z,19.88
2018-06-01T05:17:44.009Z,19.86
2018-06-01T05:18:43.968Z,19.84
2018-06-01T05:19:43.923Z,19.92
2018-06-01T05:20:43.897Z,19.97
2018-06-01T05:21:43.831Z,19.88
2018-06-01T05:22:43.787Z,19.86
2018-06-01T05:23:43.745Z,19.92
2018-06-01T05:24:43.704Z,19.97
2018-06-01T05:25:43.680Z,19.99
2018-06-01T05:26:43.609Z,20.07
2018-06-01T05:27:43.567Z,20.03
2018-06-01T05:28:43.521Z,20.18
2018-06-01T05:29:43.481Z,20.24
2018-06-01T05:30:43.464Z,20.26
2018-06-01T05:31:43.390Z,20.22
2018-06-01T05:32:43.345Z,20.14
2018-06-01T05:33:43.302Z,20.21
2018-06-01T05:34:43.263Z,20.24
2018-06-01T05:35:43.238Z,20.24
2018-06-01T05:36:43.173Z,20.37
2018-06-01T05:37:43.132Z,20.37
2018-06-01T05:38:43.083Z,20.43
2018-06-01T05:39:43.042Z,20.43
2018-06-01T05:40:43.018Z,20.50
2018-06-01T05:41:42.959Z,20.59
2018-06-01T05:42:42.910Z,20.60
2018-06-01T05:43:42.868Z,20.59
2018-06-01T05:44:42.819Z,20.78
2018-06-01T05:45:42.802Z,20.84
2018-06-01T05:46:42.728Z,20.92
2018-06-01T05:47:42.690Z,20.99
2018-06-01T05:48:42.649Z,20.92
2018-06-01T05:49:42.598Z,20.72
2018-06-01T05:50:42.580Z,20.80
2018-06-01T05:51:42.516Z,20.84
2018-06-01T05:52:42.470Z,20.87
2018-06-01T05:53:42.425Z,20.97
2018-06-01T05:54:42.383Z,21.06
2018-06-01T05:55:42.365Z,21.21
2018-06-01T05:56:42.293Z,21.35
2018-06-01T05:57:42.252Z,21.40
2018-06-01T05:58:42.209Z,21.61
2018-06-01T05:59:42.165Z,21.65
2018-06-01T06:00:42.147Z,21.84
2018-06-01T06:01:42.077Z,21.89
2018-06-01T06:02:42.038Z,22.08
2018-06-01T06:03:41.994Z,22.15
2018-06-01T06:04:41.959Z,22.25
2018-06-01T06:05:41.927Z,22.38
2018-06-01T06:06:41.861Z,22.32
2018-06-01T06:07:41.819Z,22.25
2018-06-01T06:08:41.780Z,22.14
2018-06-01T06:09:41.733Z,22.01
2018-06-01T06:10:41.715Z,22.08
2018-06-01T06:11:41.653Z,22.07
2018-06-01T06:12:41.613Z,21.95
2018-06-01T06:13:41.567Z,21.85
2018-06-01T06:14:41.524Z,21.76
2018-06-01T06:15:41.501Z,21.79
2018-06-01T06:16:41.450Z,21.76
2018-06-01T06:17:41.438Z,21.79
2018-06-01T06:18:41.352Z,21.72
2018-06-01T06:19:41.303Z,21.67
2018-06-01T06:20:41.304Z,21.67
2018-06-01T06:21:41.298Z,21.74
2018-06-01T06:22:41.182Z,21.77
2018-06-01T06:23:41.141Z,21.84
2018-06-01T06:24:41.092Z,21.81
2018-06-01T06:25:41.089Z,21.88
2018-06-01T06:26:41.012Z,21.89
2018-06-01T06:27:40.964Z,21.93
2018-06-01T06:28:40.922Z,21.93
2018-06-01T06:29:40.878Z,21.84
2018-06-01T06:30:40.869Z,21.85
2018-06-01T06:31:40.800Z,21.89
2018-06-01T06:32:40.749Z,21.77
2018-06-01T06:33:40.713Z,21.70
2018-06-01T06:34:40.666Z,21.79
2018-06-01T06:35:40.646Z,21.79
2018-06-01T06:36:40.585Z,21.84
2018-06-01T06:37:40.583Z,21.92
2018-06-01T06:38:40.497Z,22.04
2018-06-01T06:39:40.448Z,22.05
2018-06-01T06:40:40.431Z,21.99
2018-06-01T06:41:40.366Z,22.01
2018-06-01T06:42:40.324Z,22.01
2018-06-01T06:43:40.283Z,22.07
2018-06-01T06:44:40.241Z,21.92
2018-06-01T06:45:40.220Z,22.03
2018-06-01T06:46:40.155Z,22.08
2018-06-01T06:47:40.118Z,22.22
2018-06-01T06:48:40.070Z,22.25
2018-06-01T06:49:40.028Z,22.32
2018-06-01T06:50:40.014Z,22.38
2018-06-01T06:51:39.942Z,22.45
2018-06-01T06:52:39.900Z,22.45
2018-06-01T06:53:39.856Z,22.51
2018-06-01T06:54:39.812Z,22.48
2018-06-01T06:55:39.798Z,22.56
2018-06-01T06:56:39.728Z,22.59
2018-06-01T06:57:39.701Z,22.69
2018-06-01T06:58:39.645Z,22.78
2018-06-01T06:59:39.602Z,22.84
2018-06-01T07:00:39.580Z,22.87
2018-06-01T07:01:39.518Z,22.87
2018-06-01T07:02:39.522Z,22.78
2018-06-01T07:03:39.430Z,22.70
2018-06-01T07:04:39.391Z,22.75
2018-06-01T07:05:39.368Z,22.66
2018-06-01T07:06:39.304Z,22.47
2018-06-01T07:07:39.264Z,22.43
2018-06-01T07:08:39.219Z,22.48
2018-06-01T07:09:39.179Z,22.44
2018-06-01T07:10:39.162Z,22.38
2018-06-01T07:11:39.092Z,22.35
2018-06-01T07:12:39.051Z,22.43
2018-06-01T07:13:39.011Z,22.41
2018-06-01T07:14:38.965Z,22.29
2018-06-01T07:15:38.948Z,22.19
2018-06-01T07:16:38.884Z,22.25
2018-06-01T07:17:38.837Z,22.17
2018-06-01T07:18:38.799Z,22.15
2018-06-01T07:19:38.756Z,22.04
2018-06-01T07:20:38.712Z,21.93
2018-06-01T07:21:38.692Z,21.84
2018-06-01T07:22:38.629Z,21.85
2018-06-01T07:23:38.582Z,21.69
2018-06-01T07:24:38.542Z,21.73
2018-06-01T07:25:38.502Z,21.72
2018-06-01T07:26:38.480Z,21.65
2018-06-01T07:27:38.417Z,21.65
2018-06-01T07:28:38.374Z,21.58
2018-06-01T07:29:38.330Z,21.69
2018-06-01T07:30:39.971Z,21.72
2018-06-01T07:31:38.270Z,21.70
2018-06-01T07:32:38.197Z,21.61
2018-06-01T07:33:38.155Z,21.63
2018-06-01T07:34:38.118Z,21.65
2018-06-01T07:35:38.073Z,21.57
2018-06-01T07:36:38.048Z,21.63
2018-06-01T07:37:37.982Z,21.72
2018-06-01T07:38:37.940Z,21.74
2018-06-01T07:39:37.898Z,21.82
2018-06-01T07:40:37.855Z,21.84
2018-06-01T07:41:37.836Z,21.84
2018-06-01T07:42:37.767Z,21.81
2018-06-01T07:43:37.722Z,21.82
2018-06-01T07:44:37.679Z,21.77
2018-06-01T07:45:37.634Z,21.98
2018-06-01T07:46:37.629Z,21.90
2018-06-01T07:47:37.549Z,21.96
2018-06-01T07:48:37.508Z,22.04
2018-06-01T07:49:37.465Z,22.05
2018-06-01T07:50:37.422Z,22.11
2018-06-01T07:51:37.406Z,22.20
2018-06-01T07:52:37.332Z,22.20
2018-06-01T07:53:37.291Z,22.23
2018-06-01T07:54:37.303Z,22.23
2018-06-01T07:55:37.208Z,22.33
2018-06-01T07:56:37.185Z,22.41
2018-06-01T07:57:37.119Z,22.48
2018-06-01T07:58:37.079Z,22.50
2018-06-01T07:59:37.037Z,22.47
2018-06-01T08:00:36.990Z,22.51
2018-06-01T08:01:36.972Z,22.45
2018-06-01T08:02:36.905Z,22.60
2018-06-01T08:03:36.895Z,22.53
2018-06-01T08:04:36.821Z,22.62
2018-06-01T08:05:36.777Z,22.69
2018-06-01T08:06:36.758Z,22.65
2018-06-01T08:07:36.691Z,22.72
2018-06-01T08:08:36.648Z,22.73
2018-06-01T08:09:36.610Z,22.78
2018-06-01T08:10:36.563Z,22.77
2018-06-01T08:11:36.548Z,22.66
2018-06-01T08:12:36.478Z,22.66
2018-06-01T08:13:36.436Z,22.69
2018-06-01T08:14:36.418Z,22.75
2018-06-01T08:15:36.354Z,22.70
2018-06-01T08:16:36.335Z,22.77
2018-06-01T08:17:36.267Z,22.75
2018-06-01T08:18:36.226Z,22.87
2018-06-01T08:19:36.184Z,22.78
2018-06-01T08:20:36.151Z,22.84
2018-06-01T08:21:36.123Z,22.80
2018-06-01T08:22:36.060Z,22.80
2018-06-01T08:23:36.014Z,22.75
2018-06-01T08:24:35.975Z,22.75
2018-06-01T08:25:35.931Z,22.78
2018-06-01T08:26:35.912Z,22.77
2018-06-01T08:27:35.852Z,22.78
2018-06-01T08:28:35.804Z,22.87
2018-06-01T08:29:35.760Z,22.88
2018-06-01T08:30:35.723Z,23.00
2018-06-01T08:31:35.705Z,23.03
2018-06-01T08:32:35.699Z,23.21
2018-06-01T08:33:35.599Z,23.22
2018-06-01T08:34:35.558Z,23.36
2018-06-01T08:35:35.511Z,23.31
2018-06-01T08:36:35.499Z,23.21
2018-06-01T08:37:35.429Z,23.14
2018-06-01T08:38:35.390Z,23.27
2018-06-01T08:39:35.345Z,23.33
2018-06-01T08:40:35.305Z,23.36
2018-06-01T08:41:35.289Z,23.43
2018-06-01T08:42:35.217Z,23.47
2018-06-01T08:43:35.183Z,23.46
2018-06-01T08:44:35.137Z,23.44
2018-06-01T08:45:35.096Z,23.56
2018-06-01T08:46:35.123Z,23.68
2018-06-01T08:47:35.013Z,23.65
2018-06-01T08:48:34.974Z,23.77
2018-06-01T08:49:34.931Z,23.70
2018-06-01T08:50:34.892Z,23.80
2018-06-01T08:51:34.868Z,23.76
2018-06-01T08:52:34.887Z,23.78
2018-06-01T08:53:34.766Z,23.92
2018-06-01T08:54:34.722Z,24.21
2018-06-01T08:55:34.681Z,24.30
2018-06-01T08:56:34.668Z,24.57
2018-06-01T08:57:34.610Z,24.52
2018-06-01T08:58:34.562Z,24.48
2018-06-01T08:59:34.517Z,24.54
2018-06-01T09:00:34.478Z,24.47
2018-06-01T09:01:34.462Z,24.25
2018-06-01T09:02:34.397Z,24.15
2018-06-01T09:03:34.356Z,24.13
2018-06-01T09:04:34.324Z,24.15
2018-06-01T09:05:34.276Z,23.98
2018-06-01T09:06:34.260Z,24.05
2018-06-01T09:07:34.199Z,24.10
2018-06-01T09:08:34.152Z,23.95
2018-06-01T09:09:34.113Z,24.02
2018-06-01T09:10:34.071Z,23.99
2018-06-01T09:11:34.055Z,24.14
2018-06-01T09:12:33.993Z,24.17
2018-06-01T09:13:33.949Z,24.15
2018-06-01T09:14:33.909Z,24.13
2018-06-01T09:15:33.869Z,24.14
2018-06-01T09:16:33.849Z,24.18
2018-06-01T09:17:33.786Z,24.03
2018-06-01T09:18:33.745Z,24.20
2018-06-01T09:19:33.709Z,24.28
2018-06-01T09:20:33.666Z,24.37
2018-06-01T09:21:33.647Z,24.32
2018-06-01T09:22:33.584Z,24.43
2018-06-01T09:23:33.544Z,24.45
2018-06-01T09:24:33.502Z,24.47
2018-06-01T09:25:33.463Z,24.43
2018-06-01T09:26:33.452Z,24.45
2018-06-01T09:27:33.383Z,24.30
2018-06-01T09:28:33.358Z,24.37
2018-06-01T09:29:33.299Z,24.29
2018-06-01T09:30:33.259Z,24.32
2018-06-01T09:31:33.247Z,24.28
2018-06-01T09:32:33.176Z,24.37
2018-06-01T09:33:33.143Z,24.50
2018-06-01T09:34:33.101Z,24.45
2018-06-01T09:35:33.061Z,24.44
2018-06-01T09:36:33.043Z,24.45
2018-06-01T09:37:32.976Z,24.44
2018-06-01T09:38:32.940Z,24.43
2018-06-01T09:39:32.895Z,24.32
2018-06-01T09:40:32.858Z,24.28
2018-06-01T09:41:32.840Z,24.21
2018-06-01T09:42:32.772Z,24.17
2018-06-01T09:43:32.734Z,24.18
2018-06-01T09:44:32.694Z,24.00
2018-06-01T09:45:32.653Z,23.93
2018-06-01T09:46:32.639Z,23.80
2018-06-01T09:47:32.580Z,23.70
2018-06-01T09:48:32.531Z,23.66
2018-06-01T09:49:32.489Z,23.63
2018-06-01T09:50:32.449Z,23.56
2018-06-01T09:51:32.433Z,23.47
2018-06-01T09:52:32.368Z,23.47
2018-06-01T09:53:32.326Z,23.36
2018-06-01T09:54:32.283Z,23.28
2018-06-01T09:55:32.301Z,23.20
2018-06-01T09:56:32.223Z,23.13
2018-06-01T09:57:32.161Z,23.22
2018-06-01T09:58:32.121Z,23.18
2018-06-01T09:59:32.079Z,23.22
2018-06-01T10:00:32.040Z,23.20
2018-06-01T10:01:32.022Z,23.07
2018-06-01T10:02:31.955Z,23.14
2018-06-01T10:03:31.910Z,23.13
2018-06-01T10:04:31.875Z,23.10
2018-06-01T10:05:31.830Z,23.03
2018-06-01T10:06:31.808Z,23.03
2018-06-01T10:07:31.743Z,22.98
2018-06-01T10:08:31.702Z,22.99
2018-06-01T10:09:31.664Z,22.96
2018-06-01T10:10:31.619Z,22.91
2018-06-01T10:11:31.613Z,22.83
2018-06-01T10:12:31.533Z,22.83
2018-06-01T10:13:31.494Z,22.80
2018-06-01T10:14:31.460Z,22.77
2018-06-01T10:15:31.429Z,22.59
2018-06-01T10:16:31.364Z,22.45
2018-06-01T10:17:31.346Z,22.48
2018-06-01T10:18:31.283Z,22.48
2018-06-01T10:19:31.239Z,22.44
2018-06-01T10:20:31.196Z,22.40
2018-06-01T10:21:31.161Z,22.38
2018-06-01T10:22:31.135Z,22.41
2018-06-01T10:23:31.072Z,22.38
2018-06-01T10:24:31.024Z,22.44
2018-06-01T10:25:30.986Z,22.43
2018-06-01T10:26:33.414Z,22.36
2018-06-01T10:27:30.920Z,22.40
2018-06-01T10:28:30.853Z,22.45
2018-06-01T10:29:30.818Z,22.45
2018-06-01T10:30:30.769Z,22.41
2018-06-01T10:31:30.730Z,22.19
2018-06-01T10:32:30.707Z,21.90
2018-06-01T10:33:30.647Z,21.77
2018-06-01T10:34:30.612Z,21.73
2018-06-01T10:35:30.557Z,21.51
2018-06-01T10:36:30.522Z,21.50
2018-06-01T10:37:30.493Z,21.39
2018-06-01T10:38:30.432Z,21.39
2018-06-01T10:39:30.393Z,21.37
2018-06-01T10:40:30.345Z,21.42
2018-06-01T10:41:30.300Z,21.33
2018-06-01T10:42:30.281Z,21.35
2018-06-01T10:43:30.217Z,21.22
2018-06-01T10:44:30.178Z,21.29
2018-06-01T10:45:30.127Z,21.15
2018-06-01T10:46:30.086Z,21.11
2018-06-01T10:47:30.064Z,21.08
2018-06-01T10:48:29.997Z,20.96
2018-06-01T10:49:29.956Z,21.02
2018-06-01T10:50:29.910Z,20.92
2018-06-01T10:51:29.867Z,20.95
2018-06-01T10:52:29.848Z,20.84
2018-06-01T10:53:29.781Z,20.90
2018-06-01T10:54:29.878Z,20.95
2018-06-01T10:55:29.699Z,21.00
2018-06-01T10:56:29.650Z,20.89
2018-06-01T10:57:29.629Z,20.96
2018-06-01T10:58:29.564Z,21.08
2018-06-01T10:59:29.523Z,21.08
2018-06-01T11:00:29.477Z,21.17
2018-06-01T11:01:29.437Z,21.15
2018-06-01T11:02:29.418Z,21.24
2018-06-01T11:03:29.347Z,21.18
2018-06-01T11:04:29.306Z,21.17
2018-06-01T11:05:29.259Z,21.29
2018-06-01T11:06:29.215Z,21.37
2018-06-01T11:07:29.197Z,21.45
2018-06-01T11:08:29.130Z,21.58
2018-06-01T11:09:29.089Z,21.58
2018-06-01T11:10:29.046Z,21.63
2018-06-01T11:11:29.010Z,21.67
2018-06-01T11:12:28.977Z,21.63
2018-06-01T11:13:28.909Z,21.82
2018-06-01T11:14:28.923Z,21.79
2018-06-01T11:15:28.819Z,21.82
2018-06-01T11:16:28.781Z,21.81
2018-06-01T11:17:28.762Z,21.93
2018-06-01T11:18:28.697Z,22.07
2018-06-01T11:19:28.650Z,22.10
2018-06-01T11:20:28.607Z,22.20
2018-06-01T11:21:28.641Z,22.22
2018-06-01T11:22:28.548Z,22.43
2018-06-01T11:23:28.500Z,22.44
2018-06-01T11:24:28.439Z,22.51
2018-06-01T11:25:28.397Z,22.48
2018-06-01T11:26:28.359Z,22.48
2018-06-01T11:27:28.339Z,22.54
2018-06-01T11:28:28.270Z,22.48
2018-06-01T11:29:28.224Z,22.48
2018-06-01T11:30:28.187Z,22.44
2018-06-01T11:31:28.140Z,22.48
2018-06-01T11:32:28.124Z,22.44
2018-06-01T11:33:28.058Z,22.60
2018-06-01T11:34:28.012Z,22.72
2018-06-01T11:35:27.981Z,22.91
2018-06-01T11:36:27.928Z,22.87
2018-06-01T11:37:27.911Z,22.78
2018-06-01T11:38:27.904Z,22.85
2018-06-01T11:39:27.809Z,22.80
2018-06-01T11:40:27.761Z,22.69
2018-06-01T11:41:27.718Z,22.65
2018-06-01T11:42:27.704Z,22.65
2018-06-01T11:43:27.632Z,22.65
2018-06-01T11:44:27.594Z,22.81
2018-06-01T11:45:27.556Z,22.83
2018-06-01T11:46:27.509Z,22.84
2018-06-01T11:47:27.488Z,22.87
2018-06-01T11:48:27.428Z,22.87
2018-06-01T11:49:27.380Z,22.87
2018-06-01T11:50:27.520Z,22.85
2018-06-01T11:51:27.337Z,22.66
2018-06-01T11:52:27.297Z,22.77
2018-06-01T11:53:27.213Z,22.85
2018-06-01T11:54:27.173Z,22.77
2018-06-01T11:55:27.133Z,22.72
2018-06-01T11:56:27.090Z,22.78
2018-06-01T11:57:27.115Z,22.78
2018-06-01T11:58:27.028Z,22.85
2018-06-01T11:59:26.966Z,22.87
2018-06-01T12:00:26.947Z,22.78
2018-06-01T12:01:26.925Z,22.75
2018-06-01T12:02:26.880Z,22.83
2018-06-01T12:03:26.802Z,22.85
2018-06-01T12:04:26.757Z,22.80
2018-06-01T12:05:26.716Z,22.72
2018-06-01T12:06:26.669Z,22.65
2018-06-01T12:07:26.650Z,22.50
2018-06-01T12:08:26.584Z,22.23
2018-06-01T12:09:26.542Z,22.08
2018-06-01T12:10:26.499Z,22.08
2018-06-01T12:11:26.461Z,21.92
2018-06-01T12:12:26.437Z,21.85
2018-06-01T12:13:26.377Z,21.74
2018-06-01T12:14:26.329Z,21.74
2018-06-01T12:15:26.282Z,21.73
2018-06-01T12:16:26.239Z,21.69
2018-06-01T12:17:26.217Z,21.70
2018-06-01T12:18:26.157Z,21.66
2018-06-01T12:19:26.115Z,21.59
2018-06-01T12:20:26.063Z,21.73
2018-06-01T12:21:26.020Z,21.73
2018-06-01T12:22:26.006Z,21.77
2018-06-01T12:23:25.938Z,21.93
2018-06-01T12:24:25.892Z,21.92
2018-06-01T12:25:25.850Z,22.01
2018-06-01T12:26:25.805Z,22.13
2018-06-01T12:27:25.783Z,22.17
2018-06-01T12:28:25.718Z,22.20
2018-06-01T12:29:25.725Z,22.28
2018-06-01T12:30:25.637Z,22.33
2018-06-01T12:31:25.591Z,22.45
2018-06-01T12:32:25.570Z,22.50
2018-06-01T12:33:25.505Z,22.58
2018-06-01T12:34:25.465Z,22.56
2018-06-01T12:35:25.416Z,22.60
2018-06-01T12:36:25.372Z,22.66
2018-06-01T12:37:25.354Z,22.73
2018-06-01T12:38:25.287Z,22.81
2018-06-01T12:39:25.250Z,22.77
2018-06-01T12:40:25.198Z,22.80
2018-06-01T12:41:25.159Z,22.90
2018-06-01T12:42:25.137Z,22.85
2018-06-01T12:43:25.076Z,22.85
2018-06-01T12:44:25.033Z,22.84
2018-06-01T12:45:24.990Z,22.81
2018-06-01T12:46:24.947Z,22.85
2018-06-01T12:47:24.938Z,22.81
2018-06-01T12:48:24.868Z,22.85
2018-06-01T12:49:24.823Z,22.84
2018-06-01T12:50:24.785Z,22.87
2018-06-01T12:51:24.741Z,22.85
2018-06-01T12:52:24.719Z,22.95
2018-06-01T12:53:24.656Z,22.87